Time;durP1;ratioP1;P1;durP2;ratioP2;P2;SDS_P1;SDS_P2;PMS_P1;PMS_P2;Temp;Humidity;BMP_temperature;BMP_pressure;BME280_temperature;BME280_humidity;BME280_pressure;Samples;Min_cycle;Max_cycle;Signal;HPM_P1;HPM_P2
2022/06/10 00:00:47;;;;;;;6.80;6.30;;;15.90;99.90;;;;;;5113347;28;20401;-70
2022/06/10 00:03:14;;;;;;;10.33;6.90;;;15.90;99.90;;;;;;5113863;28;20488;-70
2022/06/10 00:05:42;;;;;;;6.93;6.33;;;15.90;99.90;;;;;;5113329;28;20752;-70
2022/06/10 00:08:11;;;;;;;7.90;7.20;;;15.90;99.90;;;;;;5113827;28;20397;-70
2022/06/10 00:10:37;;;;;;;7.33;6.63;;;15.90;99.90;;;;;;5112989;28;20925;-70
2022/06/10 00:13:04;;;;;;;6.50;6.10;;;15.90;99.90;;;;;;5113719;28;20460;-70
2022/06/10 00:15:31;;;;;;;7.50;6.87;;;15.90;99.90;;;;;;5111589;28;20438;-70
2022/06/10 00:17:57;;;;;;;7.37;6.67;;;15.80;99.90;;;;;;5113015;28;20424;-71
2022/06/10 00:20:27;;;;;;;6.47;5.90;;;15.80;99.90;;;;;;5113732;28;20456;-70
2022/06/10 00:22:53;;;;;;;8.00;7.33;;;15.80;99.90;;;;;;5112846;28;20585;-70
2022/06/10 00:25:19;;;;;;;7.10;6.50;;;15.70;99.90;;;;;;5113830;28;20539;-70
2022/06/10 00:27:45;;;;;;;7.63;7.03;;;15.70;99.90;;;;;;5111597;28;20419;-70
2022/06/10 00:30:12;;;;;;;8.77;7.97;;;15.70;99.90;;;;;;5113676;28;20418;-70
2022/06/10 00:32:38;;;;;;;8.67;7.80;;;15.70;99.90;;;;;;5112819;28;20432;-70
2022/06/10 00:35:05;;;;;;;8.60;7.80;;;15.70;99.90;;;;;;5113356;28;20415;-70
2022/06/10 00:37:31;;;;;;;9.00;8.30;;;15.70;99.90;;;;;;5113328;28;20404;-70
2022/06/10 00:39:57;;;;;;;9.23;8.50;;;15.60;99.90;;;;;;5112730;28;20409;-70
2022/06/10 00:42:23;;;;;;;8.10;7.50;;;15.70;99.90;;;;;;5113201;28;21007;-70
2022/06/10 00:44:52;;;;;;;9.07;7.97;;;15.60;99.90;;;;;;5111378;28;20471;-70
2022/06/10 00:47:30;;;;;;;7.20;6.60;;;15.60;99.90;;;;;;5113295;28;20395;-70
2022/06/10 00:50:13;;;;;;;7.80;7.00;;;15.70;99.90;;;;;;5112278;28;20901;-70
2022/06/10 00:52:42;;;;;;;7.13;6.63;;;15.70;99.90;;;;;;5112654;28;20403;-70
2022/06/10 00:55:08;;;;;;;8.00;7.20;;;15.60;99.90;;;;;;5112073;28;20430;-70
2022/06/10 00:57:42;;;;;;;7.53;6.97;;;15.60;99.90;;;;;;5113129;28;20489;-70
2022/06/10 01:00:18;;;;;;;8.10;7.50;;;15.60;99.90;;;;;;5113284;28;20395;-70
2022/06/10 01:02:45;;;;;;;8.13;7.53;;;15.50;99.90;;;;;;5112292;28;20855;-70
2022/06/10 01:05:17;;;;;;;7.30;6.70;;;15.50;99.90;;;;;;5112795;28;20400;-70
2022/06/10 01:07:49;;;;;;;9.13;8.30;;;15.50;99.90;;;;;;5112528;28;20434;-71
2022/06/10 01:10:18;;;;;;;8.90;8.20;;;15.50;99.90;;;;;;5113092;28;20396;-70
2022/06/10 01:13:07;;;;;;;10.63;9.63;;;15.30;99.90;;;;;;5112156;28;20411;-70
2022/06/10 01:15:41;;;;;;;10.03;9.13;;;15.00;99.90;;;;;;5113308;28;20418;-70
2022/06/10 01:18:20;;;;;;;9.20;7.80;;;15.00;99.90;;;;;;5112978;28;20466;-70
2022/06/10 01:21:19;;;;;;;9.87;9.07;;;14.90;99.90;;;;;;5111941;28;20953;-70
2022/06/10 01:24:15;;;;;;;9.77;8.97;;;14.90;99.90;;;;;;5112397;28;20407;-70
2022/06/10 01:30:06;;;;;;;10.27;9.37;;;14.90;99.90;;;;;;5116282;28;20414;-70
2022/06/10 01:32:55;;;;;;;9.93;9.23;;;14.80;99.90;;;;;;5116884;28;20411;-70
2022/06/10 01:35:41;;;;;;;8.87;8.17;;;15.00;99.90;;;;;;5116853;28;20399;-70
2022/06/10 01:38:14;;;;;;;8.53;7.80;;;15.00;99.90;;;;;;5116787;28;20485;-70
2022/06/10 01:40:53;;;;;;;9.43;8.40;;;15.00;99.90;;;;;;5115774;28;20952;-70
2022/06/10 01:43:40;;;;;;;10.43;9.47;;;15.10;99.90;;;;;;5116665;28;20468;-70
2022/06/10 01:46:10;;;;;;;10.20;9.37;;;15.10;99.90;;;;;;5116677;28;20435;-70
2022/06/10 01:48:59;;;;;;;10.00;9.20;;;15.10;99.90;;;;;;5116357;28;20409;-70
2022/06/10 01:51:35;;;;;;;9.13;8.23;;;15.10;99.90;;;;;;5116632;28;20452;-70
2022/06/10 01:54:12;;;;;;;9.10;8.30;;;15.10;99.90;;;;;;5115846;28;20422;-70
2022/06/10 01:56:44;;;;;;;8.80;7.90;;;15.20;99.90;;;;;;5116403;28;20395;-70
2022/06/10 01:59:23;;;;;;;8.53;7.83;;;15.20;99.90;;;;;;5116437;28;20400;-70
2022/06/10 02:01:56;;;;;;;10.20;8.10;;;15.20;99.90;;;;;;5097364;28;20952;-70
2022/06/10 02:04:30;;;;;;;8.40;7.70;;;15.30;99.90;;;;;;5116286;28;20400;-70
2022/06/10 02:06:58;;;;;;;10.10;8.37;;;15.20;99.90;;;;;;5114485;28;20724;-70
2022/06/10 02:09:33;;;;;;;8.70;7.97;;;15.20;99.90;;;;;;5116069;28;20407;-70
2022/06/10 02:12:06;;;;;;;7.97;7.40;;;15.20;99.90;;;;;;5115523;28;20410;-70
2022/06/10 02:14:47;;;;;;;12.40;8.00;;;15.20;99.90;;;;;;5114996;28;20873;-70
2022/06/10 02:17:15;;;;;;;8.77;7.93;;;15.20;99.90;;;;;;5116104;28;20390;-70
2022/06/10 02:19:46;;;;;;;9.20;8.57;;;15.10;99.90;;;;;;5115357;28;20495;-75
2022/06/10 02:22:35;;;;;;;9.43;8.50;;;15.10;99.90;;;;;;5115827;28;20893;-70
2022/06/10 02:25:21;;;;;;;8.50;7.90;;;15.00;99.90;;;;;;5115311;28;20807;-70
2022/06/10 02:27:56;;;;;;;8.77;7.97;;;15.00;99.90;;;;;;5115341;28;20461;-70
2022/06/10 02:30:49;;;;;;;9.77;9.07;;;15.00;99.90;;;;;;5115727;28;20378;-70
2022/06/10 02:33:16;;;;;;;8.47;7.97;;;14.90;99.90;;;;;;5115586;28;20410;-70
2022/06/10 02:36:07;;;;;;;9.20;8.50;;;14.90;99.90;;;;;;5114979;28;20398;-75
2022/06/10 02:39:03;;;;;;;8.40;7.60;;;14.90;99.90;;;;;;5114717;28;20407;-70
2022/06/10 02:41:35;;;;;;;8.57;7.77;;;14.90;99.90;;;;;;5114435;28;20468;-70
2022/06/10 02:44:16;;;;;;;8.70;7.93;;;14.80;99.90;;;;;;5114736;28;20425;-70
2022/06/10 02:46:57;;;;;;;8.50;7.90;;;14.80;99.90;;;;;;5113878;28;20917;-74
2022/06/10 02:49:22;;;;;;;8.20;7.60;;;14.70;99.90;;;;;;5115394;28;20423;-70
2022/06/10 02:51:49;;;;;;;8.97;8.20;;;14.70;99.90;;;;;;5114698;28;20851;-70
2022/06/10 02:54:30;;;;;;;8.10;7.30;;;14.70;99.90;;;;;;5115340;28;20252;-70
2022/06/10 02:56:57;;;;;;;8.90;7.90;;;14.70;99.90;;;;;;5114755;27;20390;-70
2022/06/10 03:02:14;;;;;;;9.27;8.50;;;14.70;99.90;;;;;;5115325;28;20434;-70
2022/06/10 03:05:09;;;;;;;9.03;8.23;;;14.70;99.90;;;;;;5115033;28;20426;-70
2022/06/10 03:08:11;;;;;;;9.30;8.60;;;14.60;99.90;;;;;;5114020;28;20428;-70
2022/06/10 03:11:14;;;;;;;8.23;7.63;;;14.60;99.90;;;;;;5114785;28;20491;-70
2022/06/10 03:13:47;;;;;;;10.23;9.33;;;14.60;99.90;;;;;;5115037;28;20428;-70
2022/06/10 03:16:19;;;;;;;9.43;8.60;;;14.60;99.90;;;;;;5114905;28;20382;-70
2022/06/10 03:19:04;;;;;;;10.00;9.20;;;14.60;99.90;;;;;;5113851;28;20417;-74
2022/06/10 03:21:51;;;;;;;10.70;9.70;;;14.60;99.90;;;;;;5114824;28;20951;-70
2022/06/10 03:24:41;;;;;;;11.23;10.20;;;14.60;99.90;;;;;;5113574;28;20763;-70
2022/06/10 03:27:22;;;;;;;10.83;9.73;;;14.60;99.90;;;;;;5114075;28;20441;-70
2022/06/10 03:29:51;;;;;;;9.97;9.17;;;14.60;99.90;;;;;;5114036;28;20446;-71
2022/06/10 03:32:51;;;;;;;10.43;9.67;;;14.60;99.90;;;;;;5114230;28;20842;-71
2022/06/10 03:35:23;;;;;;;11.60;10.77;;;14.60;99.90;;;;;;5114442;27;20426;-70
2022/06/10 03:37:49;;;;;;;11.43;10.53;;;14.60;99.90;;;;;;5112387;28;20397;-70
2022/06/10 03:40:23;;;;;;;11.43;10.33;;;14.60;99.90;;;;;;5061831;28;20836;-70
2022/06/10 03:42:52;;;;;;;11.80;10.80;;;14.70;99.90;;;;;;5113617;28;20452;-70
2022/06/10 03:45:21;;;;;;;11.20;10.20;;;14.70;99.90;;;;;;5114281;28;20398;-70
2022/06/10 03:47:47;;;;;;;10.93;9.87;;;14.60;99.90;;;;;;5113336;28;20744;-71
2022/06/10 03:50:17;;;;;;;11.60;9.70;;;14.60;99.90;;;;;;5113960;28;20424;-70
2022/06/10 03:52:44;;;;;;;10.70;9.80;;;14.60;99.90;;;;;;5114426;28;20733;-70
2022/06/10 03:55:16;;;;;;;10.97;9.87;;;14.60;99.90;;;;;;5113440;28;20822;-70
2022/06/10 03:57:43;;;;;;;11.37;10.37;;;14.70;99.90;;;;;;5114056;28;20483;-70
2022/06/10 04:00:13;;;;;;;12.20;11.03;;;14.60;99.90;;;;;;5113388;28;20786;-70
2022/06/10 04:02:39;;;;;;;12.10;11.00;;;14.60;99.90;;;;;;5114142;28;20441;-70
2022/06/10 04:05:05;;;;;;;11.90;10.80;;;14.60;99.90;;;;;;5113309;28;20447;-70
2022/06/10 04:07:31;;;;;;;12.63;11.40;;;14.60;99.90;;;;;;5113848;28;20401;-70
2022/06/10 04:09:57;;;;;;;12.17;11.17;;;14.60;99.90;;;;;;5113204;28;20417;-70
2022/06/10 04:12:23;;;;;;;11.53;10.37;;;14.60;99.90;;;;;;5113868;28;20240;-70
2022/06/10 04:14:49;;;;;;;10.63;9.63;;;14.60;99.90;;;;;;5111950;28;20509;-70
2022/06/10 04:17:14;;;;;;;12.87;11.60;;;14.60;99.90;;;;;;5113731;28;20793;-70
2022/06/10 04:19:40;;;;;;;12.30;11.00;;;14.70;99.90;;;;;;5113545;28;20949;-70
2022/06/10 04:22:06;;;;;;;11.50;10.23;;;14.70;99.90;;;;;;5111648;28;20212;-70
2022/06/10 04:24:31;;;;;;;24.03;18.23;;;14.70;99.90;;;;;;5113648;28;20518;-70
2022/06/10 04:26:57;;;;;;;13.57;12.17;;;14.70;99.90;;;;;;5113007;28;20169;-70
2022/06/10 04:29:23;;;;;;;12.20;11.10;;;14.70;99.90;;;;;;5112322;28;20647;-70
2022/06/10 04:31:48;;;;;;;13.40;12.30;;;14.80;99.90;;;;;;5112920;28;20570;-75
2022/06/10 04:34:15;;;;;;;13.93;12.73;;;14.80;99.90;;;;;;5113592;28;20210;-70
2022/06/10 04:36:42;;;;;;;16.87;14.37;;;14.90;99.90;;;;;;5113173;28;20537;-71
2022/06/10 04:39:08;;;;;;;15.60;13.00;;;14.90;99.90;;;;;;5112785;28;20490;-70
2022/06/10 04:41:34;;;;;;;16.00;13.57;;;15.00;99.90;;;;;;5113334;28;20453;-70
2022/06/10 04:44:00;;;;;;;16.67;13.87;;;15.00;99.90;;;;;;5113051;28;20463;-70
2022/06/10 04:46:31;;;;;;;17.43;13.63;;;15.00;99.90;;;;;;5113341;28;20172;-70
2022/06/10 04:48:57;;;;;;;17.20;14.50;;;15.10;99.90;;;;;;5112595;28;20410;-70
2022/06/10 04:51:23;;;;;;;16.77;14.77;;;15.10;99.90;;;;;;5113282;28;20404;-70
2022/06/10 04:53:49;;;;;;;14.80;13.40;;;15.20;99.90;;;;;;5113242;28;20180;-70
2022/06/10 04:56:15;;;;;;;15.90;12.97;;;15.20;99.90;;;;;;5112980;28;20616;-70
2022/06/10 04:58:41;;;;;;;14.90;13.40;;;15.20;99.90;;;;;;5113208;28;20493;-70
2022/06/10 05:01:07;;;;;;;14.10;12.60;;;15.20;99.90;;;;;;5113241;28;20168;-70
2022/06/10 05:03:33;;;;;;;13.47;12.17;;;15.30;99.90;;;;;;5117398;28;20414;-70
2022/06/10 05:05:59;;;;;;;14.53;13.00;;;15.40;99.90;;;;;;5116457;28;20313;-70
2022/06/10 05:08:24;;;;;;;16.90;13.30;;;15.30;99.90;;;;;;5117039;28;20468;-70
2022/06/10 05:10:50;;;;;;;15.23;13.40;;;15.40;99.90;;;;;;5117316;28;20308;-75
2022/06/10 05:13:17;;;;;;;14.77;13.00;;;15.40;99.90;;;;;;5117594;27;20179;-70
2022/06/10 05:15:43;;;;;;;15.30;13.70;;;15.50;99.90;;;;;;5117323;28;20197;-70
2022/06/10 05:18:11;;;;;;;15.50;14.13;;;15.50;99.90;;;;;;5116971;28;20409;-70
2022/06/10 05:20:40;;;;;;;15.23;13.10;;;15.50;99.90;;;;;;5117207;28;20460;-70
2022/06/10 05:23:07;;;;;;;14.87;13.57;;;15.60;99.90;;;;;;5116359;28;20470;-70
2022/06/10 05:25:33;;;;;;;13.83;12.40;;;15.70;99.90;;;;;;5116953;28;20442;-70
2022/06/10 05:28:00;;;;;;;13.47;11.90;;;15.70;99.90;;;;;;5115150;28;20416;-70
2022/06/10 05:30:28;;;;;;;13.20;12.00;;;15.80;99.90;;;;;;5115690;28;20419;-70
2022/06/10 05:32:54;;;;;;;13.17;11.87;;;15.80;99.90;;;;;;5116623;28;20794;-71
2022/06/10 05:35:20;;;;;;;13.20;11.80;;;15.90;99.90;;;;;;5115631;28;20502;-70
2022/06/10 05:37:49;;;;;;;11.77;9.93;;;16.00;99.90;;;;;;5098461;28;20203;-71
2022/06/10 05:40:15;;;;;;;11.40;10.40;;;16.00;99.90;;;;;;5115898;28;20419;-70
2022/06/10 05:42:43;;;;;;;10.30;9.10;;;16.10;99.90;;;;;;5115275;28;20456;-70
2022/06/10 05:45:10;;;;;;;10.30;9.40;;;16.10;99.90;;;;;;5114734;28;20797;-70
2022/06/10 05:47:36;;;;;;;10.40;9.40;;;16.20;99.90;;;;;;5116297;28;20409;-70
2022/06/10 05:50:10;;;;;;;9.90;8.90;;;16.30;99.90;;;;;;5115714;28;20502;-70
2022/06/10 05:52:36;;;;;;;8.97;8.03;;;16.40;99.90;;;;;;5116501;28;20400;-70
2022/06/10 05:55:06;;;;;;;8.30;7.57;;;16.40;99.90;;;;;;5116185;28;20397;-70
2022/06/10 05:57:32;;;;;;;8.70;6.87;;;16.50;99.90;;;;;;5116339;28;20195;-70
2022/06/10 05:59:58;;;;;;;9.67;8.17;;;16.60;99.90;;;;;;5115741;28;20432;-70
2022/06/10 06:02:25;;;;;;;9.50;7.90;;;16.70;99.90;;;;;;5116253;28;20199;-70
2022/06/10 06:04:51;;;;;;;7.60;6.30;;;16.80;99.90;;;;;;5116452;28;20397;-70
2022/06/10 06:07:26;;;;;;;7.70;6.80;;;16.80;99.90;;;;;;5115228;28;20513;-70
2022/06/10 06:09:52;;;;;;;6.30;5.70;;;16.90;99.90;;;;;;5116271;28;20496;-70
2022/06/10 06:12:19;;;;;;;8.67;6.47;;;17.00;99.90;;;;;;5115183;28;20881;-70
2022/06/10 06:14:44;;;;;;;6.77;6.13;;;17.00;99.90;;;;;;5114879;28;20463;-70
2022/06/10 06:17:12;;;;;;;9.57;8.83;;;17.10;99.90;;;;;;5115838;28;20458;-70
2022/06/10 06:19:38;;;;;;;6.77;6.20;;;17.20;99.90;;;;;;5115943;28;20310;-70
2022/06/10 06:22:04;;;;;;;7.17;6.40;;;17.30;99.90;;;;;;5115246;28;20453;-70
2022/06/10 06:24:30;;;;;;;7.10;5.53;;;17.40;99.90;;;;;;5116208;28;20764;-70
2022/06/10 06:26:56;;;;;;;8.57;5.30;;;17.50;99.90;;;;;;5113995;28;20406;-72
2022/06/10 06:29:23;;;;;;;6.40;5.70;;;17.50;99.90;;;;;;5115689;28;20159;-71
2022/06/10 06:31:53;;;;;;;7.40;6.80;;;17.50;99.90;;;;;;5115597;28;20184;-70
2022/06/10 06:34:20;;;;;;;6.13;5.60;;;17.60;99.90;;;;;;5115146;28;20492;-70
2022/06/10 06:36:47;;;;;;;7.43;6.83;;;17.70;99.90;;;;;;5115638;28;20409;-70
2022/06/10 06:39:16;;;;;;;6.10;5.60;;;17.80;99.90;;;;;;5115046;28;20875;-70
2022/06/10 06:41:42;;;;;;;5.00;4.40;;;17.90;99.90;;;;;;5115389;28;20441;-70
2022/06/10 06:44:08;;;;;;;7.33;5.07;;;18.00;99.90;;;;;;5115007;28;20413;-70
2022/06/10 06:46:36;;;;;;;5.53;5.17;;;18.10;99.90;;;;;;5115513;28;20176;-71
2022/06/10 06:49:04;;;;;;;5.80;5.30;;;18.20;99.90;;;;;;5115311;28;20206;-71
2022/06/10 06:51:30;;;;;;;5.67;5.07;;;18.30;99.90;;;;;;5115587;28;20414;-71
2022/06/10 06:53:57;;;;;;;5.37;4.97;;;18.40;99.90;;;;;;5115308;28;20406;-71
2022/06/10 06:56:23;;;;;;;5.00;4.47;;;18.50;99.90;;;;;;5115403;28;20164;-71
2022/06/10 06:58:49;;;;;;;4.70;4.30;;;18.60;99.90;;;;;;5115156;28;20949;-71
2022/06/10 07:01:15;;;;;;;8.20;7.00;;;18.70;99.90;;;;;;5114564;28;20168;-71
2022/06/10 07:03:40;;;;;;;5.33;4.13;;;18.80;99.90;;;;;;5115106;28;20615;-71
2022/06/10 07:06:06;;;;;;;5.07;3.70;;;18.90;99.90;;;;;;5114457;28;20173;-71
2022/06/10 07:08:32;;;;;;;7.17;6.63;;;19.00;99.90;;;;;;5115032;28;20513;-71
2022/06/10 07:11:02;;;;;;;4.57;4.17;;;19.00;99.90;;;;;;5114695;28;20607;-77
2022/06/10 07:13:28;;;;;;;4.20;3.40;;;19.10;99.90;;;;;;5115079;28;20156;-71
2022/06/10 07:15:56;;;;;;;5.40;4.43;;;19.10;99.90;;;;;;5114877;28;20444;-71
2022/06/10 07:18:22;;;;;;;4.90;4.50;;;19.10;99.90;;;;;;5114237;28;20425;-71
2022/06/10 07:20:48;;;;;;;5.47;3.83;;;19.20;99.90;;;;;;5114840;28;20598;-71
2022/06/10 07:23:16;;;;;;;5.70;4.30;;;19.20;99.90;;;;;;5112829;28;21007;-71
2022/06/10 07:25:42;;;;;;;5.03;4.53;;;19.30;99.90;;;;;;5114211;28;20490;-71
2022/06/10 07:28:11;;;;;;;4.47;3.90;;;19.30;99.90;;;;;;5113858;28;20402;-71
2022/06/10 07:30:38;;;;;;;4.83;4.43;;;19.30;99.90;;;;;;5114407;28;20863;-71
2022/06/10 07:33:04;;;;;;;7.00;5.30;;;19.30;99.90;;;;;;5095748;28;20408;-71
2022/06/10 07:35:31;;;;;;;9.83;6.00;;;19.30;99.90;;;;;;5114558;28;20402;-71
2022/06/10 07:37:58;;;;;;;7.43;4.30;;;19.20;99.90;;;;;;5114760;28;20405;-71
2022/06/10 07:43:28;;;;;;;5.13;4.20;;;19.30;99.90;;;;;;5114305;28;20444;-71
2022/06/10 07:45:54;;;;;;;6.20;5.60;;;19.30;99.90;;;;;;5114407;28;20410;-71
2022/06/10 07:48:20;;;;;;;5.10;4.60;;;19.30;99.90;;;;;;5113609;28;20864;-71
2022/06/10 07:50:48;;;;;;;5.00;4.53;;;19.40;99.90;;;;;;5114136;28;20823;-70
2022/06/10 07:53:14;;;;;;;5.00;4.60;;;19.40;99.90;;;;;;5113609;28;20409;-71
2022/06/10 07:55:41;;;;;;;4.67;4.27;;;19.50;99.90;;;;;;5114263;28;20416;-71
2022/06/10 07:58:08;;;;;;;4.77;3.63;;;19.50;99.90;;;;;;5113493;28;20407;-71
2022/06/10 08:00:34;;;;;;;6.47;3.43;;;19.60;99.90;;;;;;5077943;28;20416;-71
2022/06/10 08:03:01;;;;;;;3.00;2.80;;;19.50;98.70;;;;;;5113625;28;20834;-71
2022/06/10 08:05:28;;;;;;;3.40;2.90;;;19.50;99.00;;;;;;5113890;28;20416;-71
2022/06/10 08:07:54;;;;;;;3.23;2.70;;;19.50;98.20;;;;;;5113567;28;20437;-71
2022/06/10 08:10:26;;;;;;;4.27;3.00;;;19.50;97.30;;;;;;5113239;28;20402;-71
2022/06/10 08:12:53;;;;;;;7.90;3.53;;;19.50;97.50;;;;;;5077709;28;20417;-71
2022/06/10 08:15:19;;;;;;;3.20;2.80;;;19.50;97.70;;;;;;5113153;28;20414;-71
2022/06/10 08:17:46;;;;;;;2.80;2.60;;;19.50;97.70;;;;;;5112491;28;20402;-71
2022/06/10 08:20:19;;;;;;;3.70;3.40;;;19.50;99.00;;;;;;5113256;28;20457;-71
2022/06/10 08:22:45;;;;;;;4.40;3.87;;;19.50;98.80;;;;;;5113692;28;20445;-71
2022/06/10 08:25:12;;;;;;;4.73;3.60;;;19.50;98.10;;;;;;5111898;28;20915;-71
2022/06/10 08:27:38;;;;;;;8.37;3.80;;;19.60;97.90;;;;;;5113577;28;20210;-71
2022/06/10 08:30:06;;;;;;;6.70;3.50;;;19.50;98.30;;;;;;5112762;28;20397;-72
2022/06/10 08:32:31;;;;;;;4.23;3.43;;;19.60;98.90;;;;;;5113291;28;20883;-71
2022/06/10 08:34:57;;;;;;;4.63;4.23;;;19.60;98.20;;;;;;5113707;28;20495;-71
2022/06/10 08:37:23;;;;;;;5.10;3.90;;;19.60;99.00;;;;;;5112356;28;20232;-71
2022/06/10 08:39:49;;;;;;;4.23;3.90;;;19.60;98.50;;;;;;5113370;28;20255;-71
2022/06/10 08:42:37;;;;;;;7.03;6.57;;;19.60;98.50;;;;;;5112379;28;20919;-71
2022/06/10 08:45:29;;;;;;;5.60;4.30;;;19.60;99.00;;;;;;5113356;28;20164;-77
2022/06/10 08:48:11;;;;;;;4.27;3.93;;;19.70;99.90;;;;;;5112885;28;20880;-71
2022/06/10 08:51:04;;;;;;;4.33;3.93;;;19.70;99.10;;;;;;5113660;28;20401;-71
2022/06/10 08:54:13;;;;;;;5.10;3.47;;;19.70;99.00;;;;;;5093447;28;20511;-71
2022/06/10 08:56:49;;;;;;;4.03;3.27;;;19.70;99.20;;;;;;5070285;28;20488;-71
2022/06/10 08:59:28;;;;;;;7.17;4.43;;;19.80;98.90;;;;;;5108987;28;20421;-71
2022/06/10 09:02:17;;;;;;;3.53;3.23;;;19.80;98.90;;;;;;5077017;28;20481;-71
2022/06/10 09:04:54;;;;;;;3.97;3.60;;;19.80;98.80;;;;;;5112864;28;20443;-71
2022/06/10 09:07:32;;;;;;;5.37;4.10;;;19.90;99.50;;;;;;5112843;28;20450;-71
2022/06/10 09:09:59;;;;;;;3.67;3.27;;;20.10;99.90;;;;;;5113105;28;20511;-71
2022/06/10 09:12:39;;;;;;;5.43;3.00;;;20.30;99.30;;;;;;5112504;28;20406;-71
2022/06/10 09:15:05;;;;;;;4.93;3.00;;;20.50;99.10;;;;;;5113135;28;20406;-71
2022/06/10 09:17:40;;;;;;;3.97;3.63;;;20.70;99.00;;;;;;5113122;28;20415;-71
2022/06/10 09:20:31;;;;;;;4.83;4.40;;;20.90;98.20;;;;;;5112838;28;20889;-76
2022/06/10 09:23:15;;;;;;;5.67;3.20;;;21.10;97.60;;;;;;5111465;28;20457;-71
2022/06/10 09:26:09;;;;;;;3.70;3.40;;;21.20;96.70;;;;;;5090324;28;20403;-71
2022/06/10 09:28:37;;;;;;;3.07;2.80;;;21.30;96.90;;;;;;5090261;28;20417;-71
2022/06/10 09:31:33;;;;;;;3.80;3.10;;;21.40;97.10;;;;;;5090277;28;20414;-71
2022/06/10 09:34:05;;;;;;;6.27;3.87;;;21.40;96.40;;;;;;5090296;28;20479;-71
2022/06/10 09:36:51;;;;;;;4.13;3.83;;;21.50;97.20;;;;;;5089683;28;20971;-71
2022/06/10 09:42:58;;;;;;;4.10;3.43;;;21.60;95.90;;;;;;5086439;28;20559;-71
2022/06/10 09:45:42;;;;;;;5.63;4.30;;;21.60;95.80;;;;;;5056220;28;20471;-71
2022/06/10 09:48:35;;;;;;;4.10;3.80;;;21.60;95.90;;;;;;5091672;28;20431;-72
2022/06/10 09:51:25;;;;;;;4.97;4.00;;;21.60;95.70;;;;;;5026864;28;20765;-71
2022/06/10 09:54:41;;;;;;;4.47;4.17;;;21.60;95.80;;;;;;5093776;28;20394;-71
2022/06/10 09:57:42;;;;;;;3.80;2.50;;;21.60;95.60;;;;;;5072712;27;20496;-71
2022/06/10 10:00:18;;;;;;;6.20;5.80;;;21.60;95.80;;;;;;5116011;28;20444;-77
2022/06/10 10:02:46;;;;;;;3.90;3.60;;;21.50;95.20;;;;;;5116432;28;20440;-71
2022/06/10 10:05:39;;;;;;;3.90;3.60;;;21.50;95.30;;;;;;5114505;28;20411;-71
2022/06/10 10:08:47;;;;;;;5.07;4.67;;;21.60;95.40;;;;;;5116288;28;20821;-71
2022/06/10 10:11:36;;;;;;;4.57;4.17;;;21.70;95.40;;;;;;5115369;28;20496;-71
2022/06/10 10:14:19;;;;;;;6.53;5.90;;;21.80;95.70;;;;;;5116075;28;20422;-71
2022/06/10 10:16:56;;;;;;;4.70;4.10;;;21.90;94.70;;;;;;5116109;28;20394;-71
2022/06/10 10:19:42;;;;;;;3.93;3.50;;;22.10;96.30;;;;;;5114040;28;20472;-71
2022/06/10 10:22:26;;;;;;;3.93;3.60;;;22.30;97.10;;;;;;5115038;28;20437;-71
2022/06/10 10:24:52;;;;;;;7.00;6.40;;;22.70;95.20;;;;;;5115629;28;20421;-72
2022/06/10 10:27:31;;;;;;;5.53;5.13;;;22.80;93.50;;;;;;5114936;28;20404;-72
2022/06/10 10:30:06;;;;;;;4.00;3.70;;;22.80;92.90;;;;;;5116095;28;20152;-71
2022/06/10 10:32:36;;;;;;;5.00;3.40;;;22.90;92.80;;;;;;5115143;28;20451;-72
2022/06/10 10:35:17;;;;;;;3.80;3.17;;;23.10;93.60;;;;;;5114432;28;20412;-72
2022/06/10 10:38:00;;;;;;;5.33;4.17;;;23.10;92.30;;;;;;5115856;28;20401;-72
2022/06/10 10:40:41;;;;;;;4.90;4.40;;;23.00;91.70;;;;;;5114897;28;20812;-72
2022/06/10 10:43:21;;;;;;;7.70;5.83;;;22.90;91.80;;;;;;5115145;28;20491;-72
2022/06/10 10:45:55;;;;;;;6.23;4.20;;;22.90;92.90;;;;;;5115219;28;20872;-71
2022/06/10 10:48:45;;;;;;;7.27;6.87;;;22.90;91.90;;;;;;5113207;28;20405;-71
2022/06/10 10:51:11;;;;;;;6.33;5.93;;;22.90;92.20;;;;;;5108346;28;20413;-77
2022/06/10 10:53:39;;;;;;;6.77;4.80;;;22.90;92.20;;;;;;5115351;28;20515;-71
2022/06/10 10:56:06;;;;;;;5.60;5.30;;;22.90;91.80;;;;;;5115332;28;20611;-71
2022/06/10 10:58:54;;;;;;;5.90;5.17;;;22.80;92.10;;;;;;5114062;28;20913;-71
2022/06/10 11:01:45;;;;;;;5.67;5.17;;;22.70;92.20;;;;;;5078770;28;20812;-71
2022/06/10 11:04:35;;;;;;;5.47;5.17;;;22.70;92.40;;;;;;5115192;28;20402;-71
2022/06/10 11:07:10;;;;;;;7.90;7.20;;;22.60;92.70;;;;;;5115171;28;20742;-71
2022/06/10 11:09:51;;;;;;;6.80;6.30;;;22.40;92.70;;;;;;5114739;28;20408;-71
2022/06/10 11:12:22;;;;;;;7.70;7.03;;;22.30;92.90;;;;;;5114533;28;20401;-72
2022/06/10 11:15:15;;;;;;;6.53;6.03;;;22.20;93.20;;;;;;5115125;28;20465;-72
2022/06/10 11:17:43;;;;;;;6.37;5.90;;;22.10;93.80;;;;;;5115114;28;20469;-72
2022/06/10 11:20:31;;;;;;;7.50;7.00;;;22.10;94.70;;;;;;5114781;27;20457;-72
2022/06/10 11:23:26;;;;;;;6.53;5.93;;;22.00;94.90;;;;;;5114606;28;20484;-72
2022/06/10 11:26:17;;;;;;;8.73;7.87;;;22.00;94.90;;;;;;5114759;28;20409;-72
2022/06/10 11:28:44;;;;;;;6.40;5.80;;;22.10;95.00;;;;;;5114784;28;20425;-72
2022/06/10 11:31:31;;;;;;;5.73;5.30;;;22.20;95.20;;;;;;5114398;28;20758;-71
2022/06/10 11:33:59;;;;;;;5.80;5.30;;;22.30;95.30;;;;;;5114840;28;20402;-71
2022/06/10 11:36:50;;;;;;;6.57;5.93;;;22.40;95.10;;;;;;5114002;28;20447;-71
2022/06/10 11:39:29;;;;;;;5.97;5.47;;;22.50;94.20;;;;;;5113963;28;20462;-73
2022/06/10 11:42:07;;;;;;;4.77;4.47;;;22.50;94.90;;;;;;5114468;28;20456;-72
2022/06/10 11:44:48;;;;;;;5.77;5.20;;;22.40;93.60;;;;;;5113740;28;20396;-70
2022/06/10 11:47:22;;;;;;;5.83;5.33;;;22.30;94.30;;;;;;5114368;28;20401;-71
2022/06/10 11:49:57;;;;;;;6.97;6.30;;;22.30;93.30;;;;;;5113909;28;20425;-71
2022/06/10 11:52:38;;;;;;;5.20;4.83;;;22.20;94.60;;;;;;5113717;28;20736;-71
2022/06/10 11:55:25;;;;;;;6.17;5.77;;;22.30;95.50;;;;;;5114239;28;20472;-71
2022/06/10 12:01:05;;;;;;;5.27;4.80;;;22.30;93.90;;;;;;5071327;28;20392;-71
2022/06/10 12:03:43;;;;;;;5.80;5.40;;;22.40;94.80;;;;;;5070403;28;20473;-71
2022/06/10 12:06:19;;;;;;;5.43;4.97;;;22.50;95.10;;;;;;5070910;28;20399;-71
2022/06/10 12:09:04;;;;;;;5.60;4.27;;;22.60;95.00;;;;;;5070993;28;20404;-72
2022/06/10 12:11:42;;;;;;;5.90;5.00;;;22.70;93.90;;;;;;5037023;28;20414;-71
2022/06/10 12:14:23;;;;;;;8.40;7.67;;;22.70;93.60;;;;;;5070899;28;20831;-71
2022/06/10 12:17:11;;;;;;;5.47;5.07;;;22.60;92.90;;;;;;5070949;28;20399;-71
2022/06/10 12:19:52;;;;;;;5.13;4.93;;;22.50;93.20;;;;;;5069883;28;20595;-72
2022/06/10 12:22:19;;;;;;;4.27;3.97;;;22.60;93.90;;;;;;5020049;28;20553;-72
2022/06/10 12:24:49;;;;;;;6.53;6.20;;;22.60;93.80;;;;;;5070618;28;20419;-71
2022/06/10 12:27:25;;;;;;;5.03;4.73;;;22.50;92.90;;;;;;5070884;28;20407;-71
2022/06/10 12:30:02;;;;;;;5.00;4.13;;;22.50;93.50;;;;;;5109876;28;20417;-72
2022/06/10 12:32:40;;;;;;;6.30;5.63;;;22.40;93.70;;;;;;5112631;28;20472;-72
2022/06/10 12:35:32;;;;;;;5.20;4.50;;;22.40;93.60;;;;;;5112167;28;20409;-72
2022/06/10 12:38:23;;;;;;;5.30;4.80;;;22.40;93.30;;;;;;5113244;28;20397;-72
2022/06/10 12:41:09;;;;;;;5.47;5.10;;;22.50;94.60;;;;;;5113453;28;20407;-72
2022/06/10 12:43:44;;;;;;;4.40;4.10;;;22.40;93.30;;;;;;5104847;28;20554;-72
2022/06/10 12:46:28;;;;;;;7.07;6.40;;;22.40;93.60;;;;;;5077431;28;20432;-71
2022/06/10 12:48:54;;;;;;;4.53;4.00;;;22.40;94.00;;;;;;5113266;28;20417;-71
2022/06/10 12:51:40;;;;;;;5.73;5.07;;;22.40;93.80;;;;;;5112673;28;20406;-71
2022/06/10 12:54:24;;;;;;;4.20;3.80;;;22.40;94.50;;;;;;5113321;28;20407;-71
2022/06/10 12:57:21;;;;;;;5.30;4.17;;;22.50;95.10;;;;;;5113170;28;20796;-71
2022/06/10 12:59:47;;;;;;;4.60;4.30;;;22.50;94.50;;;;;;5113391;28;20455;-71
2022/06/10 13:02:52;;;;;;;7.23;6.27;;;22.60;94.80;;;;;;5111599;28;20831;-70
2022/06/10 13:05:22;;;;;;;6.30;3.60;;;22.70;94.30;;;;;;5112832;28;20710;-71
2022/06/10 13:07:52;;;;;;;5.63;5.30;;;22.70;93.60;;;;;;5112920;28;20781;-70
2022/06/10 13:10:38;;;;;;;5.77;3.77;;;22.80;94.20;;;;;;5112068;28;20405;-71
2022/06/10 13:13:22;;;;;;;5.57;4.50;;;22.90;94.60;;;;;;5113088;28;20407;-70
2022/06/10 13:15:48;;;;;;;3.37;3.17;;;23.00;94.10;;;;;;5112036;28;20438;-70
2022/06/10 13:18:17;;;;;;;5.43;3.53;;;23.20;94.70;;;;;;5112838;28;20489;-70
2022/06/10 13:20:46;;;;;;;6.40;5.90;;;23.40;94.60;;;;;;5111984;28;20453;-70
2022/06/10 13:23:16;;;;;;;4.83;4.43;;;23.50;94.40;;;;;;5115106;28;20449;-70
2022/06/10 13:25:48;;;;;;;5.27;3.20;;;23.70;93.10;;;;;;5116461;27;20423;-70
2022/06/10 13:28:24;;;;;;;5.73;5.37;;;23.80;93.10;;;;;;5116909;28;20413;-70
2022/06/10 13:31:00;;;;;;;6.70;6.17;;;24.10;94.10;;;;;;5117155;28;20401;-70
2022/06/10 13:33:27;;;;;;;4.03;3.30;;;24.10;91.30;;;;;;5116376;28;20389;-70